sensor_id;sensor_type;location;lat;lon;timestamp;P1;durP1;ratioP1;P2;durP2;ratioP2
41043;SDS011;51680;49.806;18.774;2023-04-24T00:01:11;7.50;;;3.58;;
41043;SDS011;51680;49.806;18.774;2023-04-24T00:04:14;6.13;;;3.90;;
41043;SDS011;51680;49.806;18.774;2023-04-24T00:07:17;5.18;;;3.00;;
41043;SDS011;51680;49.806;18.774;2023-04-24T00:10:20;8.30;;;3.33;;
41043;SDS011;51680;49.806;18.774;2023-04-24T00:13:22;9.95;;;3.60;;
41043;SDS011;51680;49.806;18.774;2023-04-24T00:16:24;9.10;;;3.78;;
41043;SDS011;51680;49.806;18.774;2023-04-24T00:19:27;8.27;;;3.72;;
41043;SDS011;51680;49.806;18.774;2023-04-24T00:22:29;8.37;;;3.57;;
41043;SDS011;51680;49.806;18.774;2023-04-24T00:25:31;7.32;;;3.60;;
41043;SDS011;51680;49.806;18.774;2023-04-24T00:28:32;6.10;;;3.50;;
41043;SDS011;51680;49.806;18.774;2023-04-24T00:31:34;6.25;;;3.58;;
41043;SDS011;51680;49.806;18.774;2023-04-24T00:34:37;4.28;;;3.28;;
41043;SDS011;51680;49.806;18.774;2023-04-24T00:37:39;4.57;;;2.97;;
41043;SDS011;51680;49.806;18.774;2023-04-24T00:40:41;5.45;;;3.50;;
41043;SDS011;51680;49.806;18.774;2023-04-24T00:43:43;7.68;;;3.15;;
41043;SDS011;51680;49.806;18.774;2023-04-24T00:46:45;5.60;;;3.83;;
41043;SDS011;51680;49.806;18.774;2023-04-24T00:49:53;4.80;;;2.80;;
41043;SDS011;51680;49.806;18.774;2023-04-24T00:52:55;5.00;;;3.28;;
41043;SDS011;51680;49.806;18.774;2023-04-24T00:55:56;4.78;;;3.13;;
41043;SDS011;51680;49.806;18.774;2023-04-24T00:58:59;8.45;;;3.35;;
41043;SDS011;51680;49.806;18.774;2023-04-24T01:02:01;5.75;;;3.25;;
41043;SDS011;51680;49.806;18.774;2023-04-24T01:05:04;5.43;;;3.25;;
41043;SDS011;51680;49.806;18.774;2023-04-24T01:08:08;8.38;;;3.40;;
41043;SDS011;51680;49.806;18.774;2023-04-24T01:11:10;5.55;;;3.30;;
41043;SDS011;51680;49.806;18.774;2023-04-24T01:14:12;6.22;;;3.28;;
41043;SDS011;51680;49.806;18.774;2023-04-24T01:17:15;10.27;;;3.63;;
41043;SDS011;51680;49.806;18.774;2023-04-24T01:20:18;6.57;;;3.13;;
41043;SDS011;51680;49.806;18.774;2023-04-24T01:26:25;10.15;;;3.25;;
41043;SDS011;51680;49.806;18.774;2023-04-24T01:29:27;10.60;;;3.67;;
41043;SDS011;51680;49.806;18.774;2023-04-24T01:32:29;6.88;;;3.38;;
41043;SDS011;51680;49.806;18.774;2023-04-24T01:35:31;5.20;;;3.22;;
41043;SDS011;51680;49.806;18.774;2023-04-24T01:38:35;6.30;;;3.10;;
41043;SDS011;51680;49.806;18.774;2023-04-24T01:41:36;8.90;;;2.53;;
41043;SDS011;51680;49.806;18.774;2023-04-24T01:44:38;4.72;;;2.53;;
41043;SDS011;51680;49.806;18.774;2023-04-24T01:47:41;7.82;;;3.42;;
41043;SDS011;51680;49.806;18.774;2023-04-24T01:50:43;8.60;;;3.65;;
41043;SDS011;51680;49.806;18.774;2023-04-24T01:53:47;6.72;;;3.10;;
41043;SDS011;51680;49.806;18.774;2023-04-24T01:56:49;6.00;;;3.42;;
41043;SDS011;51680;49.806;18.774;2023-04-24T01:59:51;5.70;;;3.78;;
41043;SDS011;51680;49.806;18.774;2023-04-24T02:02:53;5.47;;;3.35;;
41043;SDS011;51680;49.806;18.774;2023-04-24T02:05:54;7.60;;;3.03;;
41043;SDS011;51680;49.806;18.774;2023-04-24T02:09:00;5.53;;;3.70;;
41043;SDS011;51680;49.806;18.774;2023-04-24T02:12:02;5.75;;;3.33;;
41043;SDS011;51680;49.806;18.774;2023-04-24T02:15:05;6.75;;;3.35;;
41043;SDS011;51680;49.806;18.774;2023-04-24T02:18:07;4.97;;;3.10;;
41043;SDS011;51680;49.806;18.774;2023-04-24T02:21:08;6.07;;;3.00;;
41043;SDS011;51680;49.806;18.774;2023-04-24T02:24:12;8.55;;;3.28;;
41043;SDS011;51680;49.806;18.774;2023-04-24T02:27:33;7.57;;;3.17;;
41043;SDS011;51680;49.806;18.774;2023-04-24T02:30:35;6.55;;;3.53;;
41043;SDS011;51680;49.806;18.774;2023-04-24T02:33:36;4.30;;;2.70;;
41043;SDS011;51680;49.806;18.774;2023-04-24T02:36:38;6.45;;;3.47;;
41043;SDS011;51680;49.806;18.774;2023-04-24T02:39:41;7.05;;;3.38;;
41043;SDS011;51680;49.806;18.774;2023-04-24T02:42:43;11.77;;;3.73;;
41043;SDS011;51680;49.806;18.774;2023-04-24T02:45:45;5.72;;;3.50;;
41043;SDS011;51680;49.806;18.774;2023-04-24T02:48:47;8.50;;;3.25;;
41043;SDS011;51680;49.806;18.774;2023-04-24T02:51:48;6.80;;;3.65;;
41043;SDS011;51680;49.806;18.774;2023-04-24T02:54:51;5.65;;;3.10;;
41043;SDS011;51680;49.806;18.774;2023-04-24T02:57:54;5.03;;;3.15;;
41043;SDS011;51680;49.806;18.774;2023-04-24T03:00:55;7.43;;;3.60;;
41043;SDS011;51680;49.806;18.774;2023-04-24T03:03:57;8.57;;;4.03;;
41043;SDS011;51680;49.806;18.774;2023-04-24T03:06:59;8.52;;;3.58;;
41043;SDS011;51680;49.806;18.774;2023-04-24T03:10:03;10.25;;;3.60;;
41043;SDS011;51680;49.806;18.774;2023-04-24T03:13:05;6.15;;;3.63;;
41043;SDS011;51680;49.806;18.774;2023-04-24T03:16:08;7.95;;;3.10;;
41043;SDS011;51680;49.806;18.774;2023-04-24T03:19:10;8.32;;;3.58;;
41043;SDS011;51680;49.806;18.774;2023-04-24T03:22:23;7.75;;;3.45;;
41043;SDS011;51680;49.806;18.774;2023-04-24T03:25:26;6.30;;;3.33;;
41043;SDS011;51680;49.806;18.774;2023-04-24T03:28:29;5.45;;;3.25;;
41043;SDS011;51680;49.806;18.774;2023-04-24T03:31:37;7.35;;;3.47;;
41043;SDS011;51680;49.806;18.774;2023-04-24T03:34:39;6.20;;;3.15;;
41043;SDS011;51680;49.806;18.774;2023-04-24T03:37:42;6.18;;;3.40;;
41043;SDS011;51680;49.806;18.774;2023-04-24T03:41:04;5.45;;;3.20;;
41043;SDS011;51680;49.806;18.774;2023-04-24T03:44:19;6.07;;;3.45;;
41043;SDS011;51680;49.806;18.774;2023-04-24T03:47:20;7.35;;;3.78;;
41043;SDS011;51680;49.806;18.774;2023-04-24T03:50:24;7.47;;;3.83;;
41043;SDS011;51680;49.806;18.774;2023-04-24T03:53:27;11.98;;;3.88;;
41043;SDS011;51680;49.806;18.774;2023-04-24T03:56:31;5.03;;;3.20;;
41043;SDS011;51680;49.806;18.774;2023-04-24T03:59:33;5.22;;;3.38;;
41043;SDS011;51680;49.806;18.774;2023-04-24T04:02:43;6.50;;;3.08;;
41043;SDS011;51680;49.806;18.774;2023-04-24T04:05:45;5.78;;;3.50;;
41043;SDS011;51680;49.806;18.774;2023-04-24T04:08:47;6.03;;;3.58;;
41043;SDS011;51680;49.806;18.774;2023-04-24T04:11:50;6.15;;;3.30;;
41043;SDS011;51680;49.806;18.774;2023-04-24T04:14:52;5.80;;;3.27;;
41043;SDS011;51680;49.806;18.774;2023-04-24T04:17:54;3.88;;;2.70;;
41043;SDS011;51680;49.806;18.774;2023-04-24T04:20:56;7.00;;;3.38;;
41043;SDS011;51680;49.806;18.774;2023-04-24T04:23:59;8.27;;;3.72;;
41043;SDS011;51680;49.806;18.774;2023-04-24T04:27:08;7.63;;;3.40;;
41043;SDS011;51680;49.806;18.774;2023-04-24T04:30:18;9.73;;;3.90;;
41043;SDS011;51680;49.806;18.774;2023-04-24T04:33:28;5.20;;;3.10;;
41043;SDS011;51680;49.806;18.774;2023-04-24T04:36:30;7.45;;;3.33;;
41043;SDS011;51680;49.806;18.774;2023-04-24T04:39:41;7.55;;;3.13;;
41043;SDS011;51680;49.806;18.774;2023-04-24T04:42:50;7.50;;;2.90;;
41043;SDS011;51680;49.806;18.774;2023-04-24T04:45:54;6.97;;;3.55;;
41043;SDS011;51680;49.806;18.774;2023-04-24T04:49:20;7.18;;;3.38;;
41043;SDS011;51680;49.806;18.774;2023-04-24T04:56:01;8.00;;;3.30;;
41043;SDS011;51680;49.806;18.774;2023-04-24T04:59:11;9.52;;;3.63;;
41043;SDS011;51680;49.806;18.774;2023-04-24T05:02:14;5.25;;;3.15;;
41043;SDS011;51680;49.806;18.774;2023-04-24T05:05:16;8.40;;;3.75;;
41043;SDS011;51680;49.806;18.774;2023-04-24T05:08:21;10.45;;;3.53;;
41043;SDS011;51680;49.806;18.774;2023-04-24T05:11:23;11.32;;;3.38;;
41043;SDS011;51680;49.806;18.774;2023-04-24T05:14:27;7.50;;;3.45;;
41043;SDS011;51680;49.806;18.774;2023-04-24T05:17:29;9.90;;;3.50;;
41043;SDS011;51680;49.806;18.774;2023-04-24T05:23:35;12.27;;;3.75;;
41043;SDS011;51680;49.806;18.774;2023-04-24T05:26:37;10.00;;;3.53;;
41043;SDS011;51680;49.806;18.774;2023-04-24T05:29:41;7.22;;;3.83;;
41043;SDS011;51680;49.806;18.774;2023-04-24T05:32:44;5.75;;;3.40;;
41043;SDS011;51680;49.806;18.774;2023-04-24T05:35:47;5.18;;;2.72;;
41043;SDS011;51680;49.806;18.774;2023-04-24T05:38:49;5.47;;;3.20;;
41043;SDS011;51680;49.806;18.774;2023-04-24T05:41:51;7.57;;;3.47;;
41043;SDS011;51680;49.806;18.774;2023-04-24T05:44:54;6.00;;;2.53;;
41043;SDS011;51680;49.806;18.774;2023-04-24T05:47:56;7.50;;;3.83;;
41043;SDS011;51680;49.806;18.774;2023-04-24T05:50:57;4.68;;;2.80;;
41043;SDS011;51680;49.806;18.774;2023-04-24T05:54:00;9.93;;;3.33;;
41043;SDS011;51680;49.806;18.774;2023-04-24T05:57:02;5.60;;;3.35;;
41043;SDS011;51680;49.806;18.774;2023-04-24T06:00:23;7.72;;;4.18;;
41043;SDS011;51680;49.806;18.774;2023-04-24T06:03:33;5.22;;;3.00;;
41043;SDS011;51680;49.806;18.774;2023-04-24T06:06:37;8.18;;;3.10;;
41043;SDS011;51680;49.806;18.774;2023-04-24T06:09:39;6.10;;;3.40;;
41043;SDS011;51680;49.806;18.774;2023-04-24T06:12:41;8.63;;;3.08;;
41043;SDS011;51680;49.806;18.774;2023-04-24T06:15:50;9.20;;;3.80;;
41043;SDS011;51680;49.806;18.774;2023-04-24T06:19:01;7.43;;;3.53;;
41043;SDS011;51680;49.806;18.774;2023-04-24T06:22:03;7.35;;;3.90;;
41043;SDS011;51680;49.806;18.774;2023-04-24T06:25:05;5.35;;;3.42;;
41043;SDS011;51680;49.806;18.774;2023-04-24T06:28:08;3.65;;;1.95;;
41043;SDS011;51680;49.806;18.774;2023-04-24T06:31:11;4.20;;;2.25;;
41043;SDS011;51680;49.806;18.774;2023-04-24T06:34:13;7.53;;;3.83;;
41043;SDS011;51680;49.806;18.774;2023-04-24T06:37:15;7.35;;;3.83;;
41043;SDS011;51680;49.806;18.774;2023-04-24T06:40:17;8.32;;;3.45;;
41043;SDS011;51680;49.806;18.774;2023-04-24T06:43:19;6.60;;;3.13;;
41043;SDS011;51680;49.806;18.774;2023-04-24T06:46:22;5.00;;;2.50;;
41043;SDS011;51680;49.806;18.774;2023-04-24T06:49:26;7.45;;;3.35;;
41043;SDS011;51680;49.806;18.774;2023-04-24T06:52:27;5.93;;;3.03;;
41043;SDS011;51680;49.806;18.774;2023-04-24T06:55:32;7.00;;;3.38;;
41043;SDS011;51680;49.806;18.774;2023-04-24T06:58:35;8.73;;;3.40;;
41043;SDS011;51680;49.806;18.774;2023-04-24T07:01:38;5.45;;;3.05;;
41043;SDS011;51680;49.806;18.774;2023-04-24T07:04:40;10.02;;;3.55;;
41043;SDS011;51680;49.806;18.774;2023-04-24T07:07:41;5.78;;;3.95;;
41043;SDS011;51680;49.806;18.774;2023-04-24T07:10:44;5.13;;;3.10;;
41043;SDS011;51680;49.806;18.774;2023-04-24T07:13:46;5.97;;;3.50;;
41043;SDS011;51680;49.806;18.774;2023-04-24T07:16:53;8.90;;;3.38;;
41043;SDS011;51680;49.806;18.774;2023-04-24T07:19:55;6.35;;;3.35;;
41043;SDS011;51680;49.806;18.774;2023-04-24T07:22:56;6.35;;;3.60;;
41043;SDS011;51680;49.806;18.774;2023-04-24T07:25:58;10.65;;;3.42;;
41043;SDS011;51680;49.806;18.774;2023-04-24T07:29:00;7.28;;;3.80;;
41043;SDS011;51680;49.806;18.774;2023-04-24T07:32:03;9.63;;;4.13;;
41043;SDS011;51680;49.806;18.774;2023-04-24T07:35:05;7.25;;;3.40;;
41043;SDS011;51680;49.806;18.774;2023-04-24T07:38:07;9.48;;;2.95;;
41043;SDS011;51680;49.806;18.774;2023-04-24T07:41:09;5.30;;;2.78;;
41043;SDS011;51680;49.806;18.774;2023-04-24T07:44:11;6.22;;;2.75;;
41043;SDS011;51680;49.806;18.774;2023-04-24T07:47:14;6.45;;;2.80;;
41043;SDS011;51680;49.806;18.774;2023-04-24T07:50:16;9.55;;;2.50;;
41043;SDS011;51680;49.806;18.774;2023-04-24T07:53:17;8.77;;;3.47;;
41043;SDS011;51680;49.806;18.774;2023-04-24T07:56:20;9.50;;;3.30;;
41043;SDS011;51680;49.806;18.774;2023-04-24T07:59:22;5.30;;;3.00;;
41043;SDS011;51680;49.806;18.774;2023-04-24T08:02:25;7.18;;;3.40;;
41043;SDS011;51680;49.806;18.774;2023-04-24T08:05:27;5.70;;;3.50;;
41043;SDS011;51680;49.806;18.774;2023-04-24T08:08:29;4.78;;;3.17;;
41043;SDS011;51680;49.806;18.774;2023-04-24T08:11:49;7.22;;;3.70;;
41043;SDS011;51680;49.806;18.774;2023-04-24T08:14:51;14.32;;;3.50;;
41043;SDS011;51680;49.806;18.774;2023-04-24T08:17:54;8.32;;;3.35;;
41043;SDS011;51680;49.806;18.774;2023-04-24T08:20:56;8.97;;;3.67;;
41043;SDS011;51680;49.806;18.774;2023-04-24T08:24:02;6.07;;;3.55;;
41043;SDS011;51680;49.806;18.774;2023-04-24T08:27:08;6.03;;;3.65;;
41043;SDS011;51680;49.806;18.774;2023-04-24T08:30:12;9.80;;;4.05;;
41043;SDS011;51680;49.806;18.774;2023-04-24T08:36:17;6.80;;;3.67;;
41043;SDS011;51680;49.806;18.774;2023-04-24T08:39:19;11.02;;;3.70;;
41043;SDS011;51680;49.806;18.774;2023-04-24T08:42:21;8.30;;;4.10;;
41043;SDS011;51680;49.806;18.774;2023-04-24T08:45:23;8.60;;;4.05;;
41043;SDS011;51680;49.806;18.774;2023-04-24T08:48:27;10.55;;;3.60;;
41043;SDS011;51680;49.806;18.774;2023-04-24T08:51:29;8.10;;;3.85;;
41043;SDS011;51680;49.806;18.774;2023-04-24T08:54:33;10.50;;;4.32;;
41043;SDS011;51680;49.806;18.774;2023-04-24T08:57:36;8.82;;;4.10;;
41043;SDS011;51680;49.806;18.774;2023-04-24T09:00:40;9.20;;;4.28;;
41043;SDS011;51680;49.806;18.774;2023-04-24T09:03:49;8.77;;;3.95;;
41043;SDS011;51680;49.806;18.774;2023-04-24T09:09:52;11.63;;;4.38;;
41043;SDS011;51680;49.806;18.774;2023-04-24T09:12:55;8.80;;;4.00;;
41043;SDS011;51680;49.806;18.774;2023-04-24T09:15:58;9.50;;;4.43;;
41043;SDS011;51680;49.806;18.774;2023-04-24T09:19:02;12.35;;;4.80;;
41043;SDS011;51680;49.806;18.774;2023-04-24T09:22:04;7.45;;;4.15;;
41043;SDS011;51680;49.806;18.774;2023-04-24T09:25:07;10.77;;;4.18;;
41043;SDS011;51680;49.806;18.774;2023-04-24T09:28:12;10.15;;;4.70;;
41043;SDS011;51680;49.806;18.774;2023-04-24T09:31:18;8.45;;;4.40;;
41043;SDS011;51680;49.806;18.774;2023-04-24T09:34:23;8.60;;;4.07;;
41043;SDS011;51680;49.806;18.774;2023-04-24T09:37:29;7.20;;;4.30;;
41043;SDS011;51680;49.806;18.774;2023-04-24T09:40:31;9.10;;;4.25;;
41043;SDS011;51680;49.806;18.774;2023-04-24T09:43:35;7.80;;;3.85;;
41043;SDS011;51680;49.806;18.774;2023-04-24T09:46:37;5.45;;;3.40;;
41043;SDS011;51680;49.806;18.774;2023-04-24T09:49:40;7.65;;;3.38;;
41043;SDS011;51680;49.806;18.774;2023-04-24T09:52:44;8.50;;;3.95;;
41043;SDS011;51680;49.806;18.774;2023-04-24T09:55:47;9.77;;;3.97;;
41043;SDS011;51680;49.806;18.774;2023-04-24T09:58:50;11.97;;;4.13;;
41043;SDS011;51680;49.806;18.774;2023-04-24T10:01:52;7.47;;;3.53;;
41043;SDS011;51680;49.806;18.774;2023-04-24T10:04:55;8.18;;;4.15;;
41043;SDS011;51680;49.806;18.774;2023-04-24T10:08:02;6.60;;;3.80;;
41043;SDS011;51680;49.806;18.774;2023-04-24T10:11:05;6.78;;;3.63;;
41043;SDS011;51680;49.806;18.774;2023-04-24T10:14:08;8.20;;;4.10;;
41043;SDS011;51680;49.806;18.774;2023-04-24T10:17:11;9.77;;;4.97;;
41043;SDS011;51680;49.806;18.774;2023-04-24T10:20:15;11.93;;;5.30;;
41043;SDS011;51680;49.806;18.774;2023-04-24T10:23:17;14.73;;;7.13;;
41043;SDS011;51680;49.806;18.774;2023-04-24T10:26:20;15.75;;;5.68;;
41043;SDS011;51680;49.806;18.774;2023-04-24T10:29:24;9.23;;;4.10;;
41043;SDS011;51680;49.806;18.774;2023-04-24T10:32:26;12.88;;;4.28;;
41043;SDS011;51680;49.806;18.774;2023-04-24T10:35:29;8.07;;;3.80;;
41043;SDS011;51680;49.806;18.774;2023-04-24T10:38:32;7.88;;;4.57;;
41043;SDS011;51680;49.806;18.774;2023-04-24T10:41:36;7.70;;;4.53;;
41043;SDS011;51680;49.806;18.774;2023-04-24T10:44:39;8.40;;;4.43;;
41043;SDS011;51680;49.806;18.774;2023-04-24T10:47:41;14.15;;;3.83;;
41043;SDS011;51680;49.806;18.774;2023-04-24T10:50:46;9.73;;;3.67;;
41043;SDS011;51680;49.806;18.774;2023-04-24T10:53:49;6.97;;;2.80;;
41043;SDS011;51680;49.806;18.774;2023-04-24T10:56:51;10.20;;;4.23;;
41043;SDS011;51680;49.806;18.774;2023-04-24T11:03:22;7.32;;;4.65;;
41043;SDS011;51680;49.806;18.774;2023-04-24T11:06:30;12.45;;;5.50;;
41043;SDS011;51680;49.806;18.774;2023-04-24T11:09:33;11.50;;;4.90;;
41043;SDS011;51680;49.806;18.774;2023-04-24T11:12:36;8.98;;;5.10;;
41043;SDS011;51680;49.806;18.774;2023-04-24T11:15:40;9.68;;;4.90;;
41043;SDS011;51680;49.806;18.774;2023-04-24T11:18:43;6.78;;;4.50;;
41043;SDS011;51680;49.806;18.774;2023-04-24T11:21:56;8.00;;;5.00;;
41043;SDS011;51680;49.806;18.774;2023-04-24T11:25:01;10.05;;;5.03;;
41043;SDS011;51680;49.806;18.774;2023-04-24T11:28:05;8.48;;;4.57;;
41043;SDS011;51680;49.806;18.774;2023-04-24T11:34:36;5.43;;;3.97;;
41043;SDS011;51680;49.806;18.774;2023-04-24T11:37:41;16.33;;;4.68;;
41043;SDS011;51680;49.806;18.774;2023-04-24T11:40:46;12.13;;;5.28;;
41043;SDS011;51680;49.806;18.774;2023-04-24T11:43:49;11.98;;;5.30;;
41043;SDS011;51680;49.806;18.774;2023-04-24T11:46:52;8.93;;;5.00;;
41043;SDS011;51680;49.806;18.774;2023-04-24T11:49:57;7.35;;;5.05;;
41043;SDS011;51680;49.806;18.774;2023-04-24T11:53:00;7.32;;;5.15;;
41043;SDS011;51680;49.806;18.774;2023-04-24T11:56:02;6.60;;;4.28;;
41043;SDS011;51680;49.806;18.774;2023-04-24T11:59:04;8.20;;;4.25;;
41043;SDS011;51680;49.806;18.774;2023-04-24T12:02:06;9.00;;;4.30;;
41043;SDS011;51680;49.806;18.774;2023-04-24T12:05:27;8.38;;;4.25;;
41043;SDS011;51680;49.806;18.774;2023-04-24T12:11:34;10.57;;;5.45;;
41043;SDS011;51680;49.806;18.774;2023-04-24T12:14:41;8.00;;;5.00;;
41043;SDS011;51680;49.806;18.774;2023-04-24T12:17:50;9.73;;;5.40;;
41043;SDS011;51680;49.806;18.774;2023-04-24T12:20:52;9.23;;;5.50;;
41043;SDS011;51680;49.806;18.774;2023-04-24T12:23:55;13.75;;;6.20;;
41043;SDS011;51680;49.806;18.774;2023-04-24T12:26:57;14.18;;;6.78;;
41043;SDS011;51680;49.806;18.774;2023-04-24T12:30:00;8.90;;;5.45;;
41043;SDS011;51680;49.806;18.774;2023-04-24T12:33:02;6.85;;;4.85;;
41043;SDS011;51680;49.806;18.774;2023-04-24T12:36:04;10.15;;;5.35;;
41043;SDS011;51680;49.806;18.774;2023-04-24T12:39:15;9.20;;;4.97;;
41043;SDS011;51680;49.806;18.774;2023-04-24T12:42:41;7.68;;;4.95;;
41043;SDS011;51680;49.806;18.774;2023-04-24T12:45:44;4.93;;;3.38;;
41043;SDS011;51680;49.806;18.774;2023-04-24T12:48:46;7.18;;;4.30;;
41043;SDS011;51680;49.806;18.774;2023-04-24T12:51:48;5.65;;;3.13;;
41043;SDS011;51680;49.806;18.774;2023-04-24T12:54:51;7.22;;;3.58;;
41043;SDS011;51680;49.806;18.774;2023-04-24T12:57:54;6.05;;;3.85;;
41043;SDS011;51680;49.806;18.774;2023-04-24T13:00:56;6.05;;;3.45;;
41043;SDS011;51680;49.806;18.774;2023-04-24T13:03:58;5.85;;;4.03;;
41043;SDS011;51680;49.806;18.774;2023-04-24T13:06:59;5.47;;;3.08;;
41043;SDS011;51680;49.806;18.774;2023-04-24T13:10:03;5.18;;;3.75;;
41043;SDS011;51680;49.806;18.774;2023-04-24T13:13:05;6.65;;;3.83;;
41043;SDS011;51680;49.806;18.774;2023-04-24T13:16:07;6.85;;;3.80;;
41043;SDS011;51680;49.806;18.774;2023-04-24T13:19:09;7.53;;;4.20;;
41043;SDS011;51680;49.806;18.774;2023-04-24T13:22:11;8.55;;;3.80;;
41043;SDS011;51680;49.806;18.774;2023-04-24T13:25:14;6.53;;;3.80;;
41043;SDS011;51680;49.806;18.774;2023-04-24T13:28:18;6.00;;;3.90;;
41043;SDS011;51680;49.806;18.774;2023-04-24T13:31:19;6.85;;;4.57;;
41043;SDS011;51680;49.806;18.774;2023-04-24T13:34:21;5.75;;;3.63;;
41043;SDS011;51680;49.806;18.774;2023-04-24T13:37:23;7.15;;;4.05;;
41043;SDS011;51680;49.806;18.774;2023-04-24T13:40:26;6.28;;;3.67;;
41043;SDS011;51680;49.806;18.774;2023-04-24T13:43:28;5.85;;;3.85;;
41043;SDS011;51680;49.806;18.774;2023-04-24T13:46:30;11.85;;;5.10;;
41043;SDS011;51680;49.806;18.774;2023-04-24T13:49:33;9.27;;;5.10;;
41043;SDS011;51680;49.806;18.774;2023-04-24T13:52:35;7.97;;;5.03;;
41043;SDS011;51680;49.806;18.774;2023-04-24T13:55:38;12.40;;;5.70;;
41043;SDS011;51680;49.806;18.774;2023-04-24T13:58:40;9.37;;;5.17;;
41043;SDS011;51680;49.806;18.774;2023-04-24T14:01:42;10.23;;;5.60;;
41043;SDS011;51680;49.806;18.774;2023-04-24T14:04:45;11.48;;;5.38;;
41043;SDS011;51680;49.806;18.774;2023-04-24T14:07:48;12.30;;;4.95;;
41043;SDS011;51680;49.806;18.774;2023-04-24T14:10:53;12.15;;;5.57;;
41043;SDS011;51680;49.806;18.774;2023-04-24T14:13:55;13.90;;;6.25;;
41043;SDS011;51680;49.806;18.774;2023-04-24T14:16:57;8.10;;;5.10;;
41043;SDS011;51680;49.806;18.774;2023-04-24T14:19:59;8.68;;;5.53;;
41043;SDS011;51680;49.806;18.774;2023-04-24T14:23:01;10.82;;;5.90;;
41043;SDS011;51680;49.806;18.774;2023-04-24T14:26:05;7.45;;;5.30;;
41043;SDS011;51680;49.806;18.774;2023-04-24T14:29:06;8.37;;;5.53;;
41043;SDS011;51680;49.806;18.774;2023-04-24T14:32:08;8.73;;;5.45;;
41043;SDS011;51680;49.806;18.774;2023-04-24T14:35:10;10.20;;;4.78;;
41043;SDS011;51680;49.806;18.774;2023-04-24T14:38:11;9.70;;;5.00;;
41043;SDS011;51680;49.806;18.774;2023-04-24T14:41:15;8.82;;;5.53;;
41043;SDS011;51680;49.806;18.774;2023-04-24T14:44:16;10.80;;;6.60;;
41043;SDS011;51680;49.806;18.774;2023-04-24T14:47:18;12.15;;;6.65;;
41043;SDS011;51680;49.806;18.774;2023-04-24T14:50:21;16.27;;;8.20;;
41043;SDS011;51680;49.806;18.774;2023-04-24T14:53:23;14.38;;;8.35;;
41043;SDS011;51680;49.806;18.774;2023-04-24T14:56:27;13.85;;;7.60;;
41043;SDS011;51680;49.806;18.774;2023-04-24T14:59:28;14.60;;;7.60;;
41043;SDS011;51680;49.806;18.774;2023-04-24T15:02:32;10.48;;;6.90;;
41043;SDS011;51680;49.806;18.774;2023-04-24T15:05:34;12.13;;;7.53;;
41043;SDS011;51680;49.806;18.774;2023-04-24T15:08:36;11.52;;;7.50;;
41043;SDS011;51680;49.806;18.774;2023-04-24T15:11:39;13.85;;;7.30;;
41043;SDS011;51680;49.806;18.774;2023-04-24T15:14:41;10.87;;;7.07;;
41043;SDS011;51680;49.806;18.774;2023-04-24T15:17:43;12.38;;;6.75;;
41043;SDS011;51680;49.806;18.774;2023-04-24T15:20:44;9.32;;;6.00;;
41043;SDS011;51680;49.806;18.774;2023-04-24T15:23:47;9.43;;;6.53;;
41043;SDS011;51680;49.806;18.774;2023-04-24T15:26:50;9.70;;;6.38;;
41043;SDS011;51680;49.806;18.774;2023-04-24T15:29:52;11.50;;;6.00;;
41043;SDS011;51680;49.806;18.774;2023-04-24T15:32:54;9.45;;;5.88;;
41043;SDS011;51680;49.806;18.774;2023-04-24T15:35:56;9.00;;;5.72;;
41043;SDS011;51680;49.806;18.774;2023-04-24T15:38:58;8.98;;;5.60;;
41043;SDS011;51680;49.806;18.774;2023-04-24T15:42:01;10.57;;;5.90;;
41043;SDS011;51680;49.806;18.774;2023-04-24T15:45:03;8.70;;;5.17;;
41043;SDS011;51680;49.806;18.774;2023-04-24T15:48:05;11.27;;;5.55;;
41043;SDS011;51680;49.806;18.774;2023-04-24T15:51:07;9.07;;;6.07;;
41043;SDS011;51680;49.806;18.774;2023-04-24T15:54:08;10.10;;;6.38;;
41043;SDS011;51680;49.806;18.774;2023-04-24T15:57:12;10.30;;;6.68;;
41043;SDS011;51680;49.806;18.774;2023-04-24T16:00:14;8.70;;;6.10;;
41043;SDS011;51680;49.806;18.774;2023-04-24T16:03:36;8.75;;;5.90;;
41043;SDS011;51680;49.806;18.774;2023-04-24T16:06:38;12.27;;;6.43;;
41043;SDS011;51680;49.806;18.774;2023-04-24T16:09:40;9.35;;;6.30;;
41043;SDS011;51680;49.806;18.774;2023-04-24T16:12:43;10.07;;;6.28;;
41043;SDS011;51680;49.806;18.774;2023-04-24T16:15:45;10.18;;;7.10;;
41043;SDS011;51680;49.806;18.774;2023-04-24T16:18:47;9.15;;;5.85;;
41043;SDS011;51680;49.806;18.774;2023-04-24T16:21:49;9.45;;;6.05;;
41043;SDS011;51680;49.806;18.774;2023-04-24T16:24:53;10.95;;;6.90;;
41043;SDS011;51680;49.806;18.774;2023-04-24T16:27:57;10.23;;;6.88;;
41043;SDS011;51680;49.806;18.774;2023-04-24T16:30:59;10.77;;;7.20;;
41043;SDS011;51680;49.806;18.774;2023-04-24T16:34:00;15.88;;;7.28;;
41043;SDS011;51680;49.806;18.774;2023-04-24T16:37:02;14.32;;;7.80;;
41043;SDS011;51680;49.806;18.774;2023-04-24T16:40:05;13.65;;;7.93;;
41043;SDS011;51680;49.806;18.774;2023-04-24T16:43:11;15.18;;;8.95;;
41043;SDS011;51680;49.806;18.774;2023-04-24T16:46:13;13.97;;;8.37;;
41043;SDS011;51680;49.806;18.774;2023-04-24T16:49:14;11.60;;;7.97;;
41043;SDS011;51680;49.806;18.774;2023-04-24T16:52:16;15.23;;;8.32;;
41043;SDS011;51680;49.806;18.774;2023-04-24T16:55:18;16.88;;;8.88;;
41043;SDS011;51680;49.806;18.774;2023-04-24T16:58:21;14.18;;;9.38;;
41043;SDS011;51680;49.806;18.774;2023-04-24T17:01:23;15.27;;;8.50;;
41043;SDS011;51680;49.806;18.774;2023-04-24T17:04:25;15.15;;;9.20;;
41043;SDS011;51680;49.806;18.774;2023-04-24T17:07:26;13.02;;;8.90;;
41043;SDS011;51680;49.806;18.774;2023-04-24T17:10:28;16.10;;;9.80;;
41043;SDS011;51680;49.806;18.774;2023-04-24T17:13:31;15.98;;;9.82;;
41043;SDS011;51680;49.806;18.774;2023-04-24T17:16:33;19.27;;;10.73;;
41043;SDS011;51680;49.806;18.774;2023-04-24T17:19:35;13.63;;;9.40;;
41043;SDS011;51680;49.806;18.774;2023-04-24T17:22:37;17.02;;;8.75;;
41043;SDS011;51680;49.806;18.774;2023-04-24T17:25:38;14.82;;;10.98;;
41043;SDS011;51680;49.806;18.774;2023-04-24T17:28:42;13.40;;;9.15;;
41043;SDS011;51680;49.806;18.774;2023-04-24T17:31:43;14.90;;;9.63;;
41043;SDS011;51680;49.806;18.774;2023-04-24T17:34:45;14.27;;;8.95;;
41043;SDS011;51680;49.806;18.774;2023-04-24T17:37:48;14.85;;;9.20;;
41043;SDS011;51680;49.806;18.774;2023-04-24T17:40:50;14.85;;;10.15;;
41043;SDS011;51680;49.806;18.774;2023-04-24T17:43:53;16.50;;;10.23;;
41043;SDS011;51680;49.806;18.774;2023-04-24T17:46:55;17.00;;;9.53;;
41043;SDS011;51680;49.806;18.774;2023-04-24T17:49:57;15.38;;;9.20;;
41043;SDS011;51680;49.806;18.774;2023-04-24T17:52:59;17.20;;;10.30;;
41043;SDS011;51680;49.806;18.774;2023-04-24T17:56:00;14.13;;;9.48;;
41043;SDS011;51680;49.806;18.774;2023-04-24T17:59:04;15.98;;;9.70;;
41043;SDS011;51680;49.806;18.774;2023-04-24T18:02:06;14.30;;;9.85;;
41043;SDS011;51680;49.806;18.774;2023-04-24T18:05:08;17.90;;;10.48;;
41043;SDS011;51680;49.806;18.774;2023-04-24T18:08:09;14.45;;;9.65;;
41043;SDS011;51680;49.806;18.774;2023-04-24T18:11:11;16.35;;;9.50;;
41043;SDS011;51680;49.806;18.774;2023-04-24T18:14:14;13.50;;;9.93;;
41043;SDS011;51680;49.806;18.774;2023-04-24T18:17:16;15.47;;;9.50;;
41043;SDS011;51680;49.806;18.774;2023-04-24T18:20:18;13.52;;;9.05;;
41043;SDS011;51680;49.806;18.774;2023-04-24T18:23:20;14.40;;;9.20;;
41043;SDS011;51680;49.806;18.774;2023-04-24T18:26:22;12.98;;;9.02;;
41043;SDS011;51680;49.806;18.774;2023-04-24T18:29:25;13.93;;;9.13;;